»·PEaware :: UAL935 KCOS-KDEN

UAL935 :: KCOS-KDEN

FLIGHT INFORMATION

Flight Status: Arrived
Operator:
United Airlines
More flights by this operator :: More flights under this callsign
Pilot: Michael S. (20314)
Aircraft: AIRBUS A321
(A321)
More flights by this aircraft type
Origin: KCOS City Of Colorado Springs Mun
United States
Destination: KDEN Denver Intl
United States
More flights between these airports :: More routes between these airports
Route: COS6 ADANE V389 LUFSE JEFEL
File this flight plan on PilotEdge
Remarks: RMK / SIMBRIEF
Altitude:
(Current/Filed)
12,000ft
Speed:
(Current/Filed)
357kts
Departed: 25-Mar-22 06:22 PM
Arrived: 25-Mar-22 06:52 PM
Distance/Time
Traveled:
63nm/0:30
Distance/Time
To Go:
Arrived

Flight Plot

Page will automatically refresh every two minutes.

Flight plan parsing failed; only flown route is shown


Map Options




Map Legend


Flown Route
Filed Route
Departure Airport
Arrival Airport
Navaid (VOR, NDB)
Fix

Horizontal Profiles

Position Reports

Time Latitude Longitude Heading Altitude Ground
Speed
25-Mar-22 17:58 38.797936 -104.701548 100 6196ft 0kts
25-Mar-22 17:59 38.797936 -104.701548 100 6196ft 0kts
25-Mar-22 18:00 38.797936 -104.701548 100 6196ft 0kts
25-Mar-22 18:01 38.797936 -104.701548 100 6196ft 0kts
25-Mar-22 18:02 38.797936 -104.701548 100 6196ft 0kts
25-Mar-22 18:03 38.797936 -104.701548 100 6196ft 0kts
25-Mar-22 18:04 38.797936 -104.701548 100 6196ft 0kts
25-Mar-22 18:05 38.797936 -104.701548 100 6196ft 0kts
25-Mar-22 18:06 38.797943 -104.701601 116 6196ft 0kts
25-Mar-22 18:07 38.798095 -104.702114 124 6196ft 2kts
25-Mar-22 18:08 38.798425 -104.702747 123 6196ft 2kts
25-Mar-22 18:09 38.798363 -104.702951 358 6196ft 1kts
25-Mar-22 18:10 38.798345 -104.702951 358 6196ft 0kts
25-Mar-22 18:11 38.798345 -104.702951 358 6196ft 0kts
25-Mar-22 18:12 38.799161 -104.702920 10 6196ft 11kts
25-Mar-22 18:13 38.802164 -104.700953 359 6196ft 14kts
25-Mar-22 18:14 38.803094 -104.696727 88 6196ft 14kts
25-Mar-22 18:15 38.803135 -104.691339 88 6196ft 19kts
25-Mar-22 18:16 38.804329 -104.687658 0 6196ft 12kts
25-Mar-22 18:17 38.808467 -104.687657 359 6196ft 15kts
25-Mar-22 18:18 38.812902 -104.687637 359 6196ft 16kts
25-Mar-22 18:19 38.815917 -104.687111 86 6196ft 0kts
25-Mar-22 18:20 38.815919 -104.687075 86 6196ft 2kts
25-Mar-22 18:21 38.814259 -104.685737 179 6196ft 44kts
25-Mar-22 18:22 38.774825 -104.686345 180 7278ft 178kts
25-Mar-22 18:23 38.722854 -104.687474 182 8767ft 209kts
25-Mar-22 18:24 38.657419 -104.679532 147 9905ft 280kts
25-Mar-22 18:25 38.650808 -104.579323 43 11218ft 353kts
25-Mar-22 18:26 38.738382 -104.518418 23 12005ft 359kts
25-Mar-22 18:27 38.823447 -104.461862 24 12017ft 371kts
25-Mar-22 18:28 38.915933 -104.404762 11 12017ft 365kts
25-Mar-22 18:29 39.014792 -104.394306 357 12021ft 353kts
25-Mar-22 18:30 39.111283 -104.389803 357 12020ft 347kts
25-Mar-22 18:31 39.207508 -104.385114 357 12019ft 347kts
25-Mar-22 18:32 39.303134 -104.380583 357 12019ft 344kts
25-Mar-22 18:33 39.398278 -104.376039 357 12013ft 345kts
25-Mar-22 18:34 39.492941 -104.371798 357 11161ft 336kts
25-Mar-22 18:35 39.586616 -104.369496 357 10937ft 338kts
25-Mar-22 18:36 39.680485 -104.367260 357 10930ft 339kts
25-Mar-22 18:37 39.766961 -104.364730 357 10920ft 279kts
25-Mar-22 18:38 39.844548 -104.362097 357 10922ft 279kts
25-Mar-22 18:39 39.922051 -104.359573 357 10918ft 274kts
25-Mar-22 18:40 39.991829 -104.356704 357 10921ft 244kts
25-Mar-22 18:41 40.058783 -104.358296 329 10885ft 237kts
25-Mar-22 18:42 40.078163 -104.435808 276 10116ft 239kts
25-Mar-22 18:43 40.081874 -104.514136 276 8834ft 195kts
25-Mar-22 18:44 40.085076 -104.585104 276 7017ft 195kts
25-Mar-22 18:45 40.086146 -104.656164 246 6885ft 203kts
25-Mar-22 18:46 40.036647 -104.685434 197 6874ft 168kts
25-Mar-22 18:47 39.992188 -104.694756 180 6921ft 162kts
25-Mar-22 18:48 39.947008 -104.695474 179 6440ft 160kts
25-Mar-22 18:49 39.903421 -104.695959 179 5643ft 155kts
25-Mar-22 18:50 39.872450 -104.696339 179 5443ft 46kts
25-Mar-22 18:51 39.864639 -104.693841 150 5443ft 6kts
25-Mar-22 18:52 39.861169 -104.691264 149 5443ft 15kts
25-Mar-22 18:53 39.860337 -104.686075 90 5443ft 15kts
25-Mar-22 18:54 39.860374 -104.681324 84 5443ft 14kts
25-Mar-22 18:55 39.859539 -104.679489 169 5443ft 2kts
25-Mar-22 18:56 39.859514 -104.679483 170 5443ft 0kts

Navigation Log

Ident Type
Flight plan parsing failed, navigation log unavailable